createdAt,value
2019-04-26T00:02:13.089Z,6.20
2019-04-26T00:04:45.082Z,7.00
2019-04-26T00:07:16.626Z,6.43
2019-04-26T00:09:48.026Z,6.80
2019-04-26T00:12:20.766Z,6.90
2019-04-26T00:14:53.403Z,6.83
2019-04-26T00:17:26.235Z,6.67
2019-04-26T00:19:57.422Z,6.83
2019-04-26T00:22:29.161Z,6.63
2019-04-26T00:25:00.177Z,6.40
2019-04-26T00:27:31.209Z,5.83
2019-04-26T00:30:01.898Z,6.73
2019-04-26T00:32:33.178Z,6.60
2019-04-26T00:35:04.424Z,6.43
2019-04-26T00:37:35.696Z,6.33
2019-04-26T00:40:07.672Z,6.60
2019-04-26T00:42:38.539Z,6.23
2019-04-26T00:45:09.541Z,6.33
2019-04-26T00:47:40.672Z,5.77
2019-04-26T00:50:13.766Z,6.60
2019-04-26T00:52:45.696Z,6.80
2019-04-26T00:55:17.699Z,6.63
2019-04-26T00:57:49.392Z,6.13
2019-04-26T01:00:21.832Z,6.87
2019-04-26T01:02:54.374Z,6.40
2019-04-26T01:05:25.293Z,7.27
2019-04-26T01:07:57.918Z,6.03
2019-04-26T01:10:28.747Z,6.40
2019-04-26T01:12:59.411Z,6.23
2019-04-26T01:15:30.107Z,6.90
2019-04-26T01:18:01.033Z,6.07
2019-04-26T01:20:35.116Z,5.77
2019-04-26T01:23:09.994Z,6.17
2019-04-26T01:25:51.103Z,5.93
2019-04-26T01:28:46.967Z,6.03
2019-04-26T01:31:18.632Z,6.07
2019-04-26T01:33:50.385Z,6.27
2019-04-26T01:36:22.620Z,6.10
2019-04-26T01:38:58.144Z,6.90
2019-04-26T01:41:40.666Z,6.57
2019-04-26T01:44:13.393Z,6.50
2019-04-26T01:46:47.006Z,6.20
2019-04-26T01:49:22.774Z,6.30
2019-04-26T01:52:13.126Z,6.60
2019-04-26T01:54:46.860Z,6.80
2019-04-26T01:57:18.130Z,6.70
2019-04-26T01:59:55.115Z,6.50
2019-04-26T02:02:28.396Z,6.80
2019-04-26T02:05:07.008Z,6.67
2019-04-26T02:07:40.992Z,6.67
2019-04-26T02:10:18.078Z,6.57
2019-04-26T02:12:50.808Z,7.33
2019-04-26T02:15:33.358Z,6.77
2019-04-26T02:18:05.089Z,7.03
2019-04-26T02:21:12.107Z,6.57
2019-04-26T02:23:53.517Z,6.77
2019-04-26T02:26:44.453Z,6.60
2019-04-26T02:29:22.280Z,5.67
2019-04-26T02:32:03.101Z,6.37
2019-04-26T02:34:37.674Z,6.40
2019-04-26T02:37:13.667Z,6.90
2019-04-26T02:39:44.912Z,6.80
2019-04-26T02:42:30.964Z,6.93
2019-04-26T02:45:20.398Z,7.00
2019-04-26T02:47:57.310Z,6.27
2019-04-26T02:50:34.936Z,6.23
2019-04-26T02:53:18.826Z,6.90
2019-04-26T02:56:10.603Z,6.60
2019-04-26T02:58:57.683Z,6.60
2019-04-26T03:01:31.881Z,6.77
2019-04-26T03:04:02.210Z,6.33
2019-04-26T03:06:36.651Z,6.77
2019-04-26T03:09:08.124Z,7.40
2019-04-26T03:11:48.839Z,6.23
2019-04-26T03:14:20.020Z,6.37
2019-04-26T03:16:56.948Z,6.57
2019-04-26T03:20:05.369Z,6.97
2019-04-26T03:22:52.280Z,6.73
2019-04-26T03:25:42.274Z,6.63
2019-04-26T03:28:37.655Z,6.67
2019-04-26T03:31:27.764Z,6.43
2019-04-26T03:34:19.719Z,6.10
2019-04-26T03:37:28.218Z,6.33
2019-04-26T03:40:19.849Z,7.03
2019-04-26T03:43:20.652Z,6.43
2019-04-26T03:46:34.867Z,6.67
2019-04-26T03:49:30.866Z,6.33
2019-04-26T03:52:40.120Z,6.37
2019-04-26T03:55:28.194Z,6.00
2019-04-26T03:58:26.639Z,6.23
2019-04-26T04:01:12.198Z,6.80
2019-04-26T04:04:03.204Z,6.57
2019-04-26T04:06:56.705Z,6.97
2019-04-26T04:09:11.066Z,7.10
2019-04-26T04:11:50.691Z,6.20
2019-04-26T04:14:48.124Z,6.63
2019-04-26T04:17:32.929Z,7.10
2019-04-26T04:20:41.032Z,6.87
2019-04-26T04:23:31.284Z,6.70
2019-04-26T04:26:06.374Z,6.50
2019-04-26T04:29:19.455Z,6.50
2019-04-26T04:31:54.711Z,6.47
2019-04-26T04:34:38.090Z,6.67
2019-04-26T04:37:13.371Z,6.30
2019-04-26T04:40:11.276Z,6.13
2019-04-26T04:43:02.767Z,6.30
2019-04-26T04:46:05.414Z,6.97
2019-04-26T04:48:53.210Z,6.17
2019-04-26T04:51:28.953Z,6.03
2019-04-26T04:54:16.547Z,7.07
2019-04-26T04:57:23.648Z,6.30
2019-04-26T05:00:18.444Z,6.73
2019-04-26T05:03:35.042Z,6.80
2019-04-26T05:06:36.306Z,6.57
2019-04-26T05:09:10.928Z,6.47
2019-04-26T05:12:10.431Z,6.17
2019-04-26T05:15:05.290Z,6.33
2019-04-26T05:18:00.207Z,6.03
2019-04-26T05:21:16.528Z,6.17
2019-04-26T05:24:22.939Z,6.17
2019-04-26T05:27:02.690Z,6.27
2019-04-26T05:29:59.118Z,7.10
2019-04-26T05:32:52.557Z,6.93
2019-04-26T05:35:53.095Z,7.13
2019-04-26T05:38:55.372Z,6.10
2019-04-26T05:42:03.989Z,6.33
2019-04-26T05:45:21.621Z,5.73
2019-04-26T05:48:50.907Z,5.77
2019-04-26T05:52:02.160Z,5.93
2019-04-26T05:55:21.706Z,5.80
2019-04-26T05:58:09.839Z,6.00
2019-04-26T06:01:13.704Z,6.40
2019-04-26T06:04:22.375Z,5.57
2019-04-26T06:07:24.733Z,5.40
2019-04-26T06:10:07.925Z,5.47
2019-04-26T06:12:56.617Z,5.77
2019-04-26T06:15:45.210Z,5.83
2019-04-26T06:18:30.675Z,5.47
2019-04-26T06:21:25.355Z,5.47
2019-04-26T06:24:34.303Z,5.10
2019-04-26T06:27:23.539Z,4.90
2019-04-26T06:30:19.485Z,5.13
2019-04-26T06:33:26.437Z,5.90
2019-04-26T06:36:02.259Z,5.70
2019-04-26T06:39:04.112Z,5.23
2019-04-26T06:42:11.869Z,5.27
2019-04-26T06:45:20.762Z,5.47
2019-04-26T06:48:18.524Z,5.70
2019-04-26T06:51:05.016Z,6.10
2019-04-26T06:53:58.588Z,5.40
2019-04-26T06:56:48.051Z,6.43
2019-04-26T06:59:48.562Z,6.40
2019-04-26T07:02:38.791Z,6.83
2019-04-26T07:05:34.459Z,6.63
2019-04-26T07:08:27.196Z,5.50
2019-04-26T07:11:43.718Z,6.40
2019-04-26T07:15:03.708Z,6.00
2019-04-26T07:17:57.202Z,6.40
2019-04-26T07:20:34.767Z,5.67
2019-04-26T07:23:50.344Z,5.23
2019-04-26T07:26:52.827Z,5.23
2019-04-26T07:29:45.392Z,5.43
2019-04-26T07:32:46.524Z,5.30
2019-04-26T07:35:46.476Z,5.60
2019-04-26T07:38:52.159Z,5.10
2019-04-26T07:41:40.739Z,5.87
2019-04-26T07:44:25.998Z,5.80
2019-04-26T07:47:36.358Z,5.60
2019-04-26T07:50:34.144Z,5.47
2019-04-26T07:53:36.985Z,6.23
2019-04-26T07:56:18.648Z,5.43
2019-04-26T07:59:46.530Z,5.83
2019-04-26T08:02:48.260Z,4.90
2019-04-26T08:05:39.886Z,4.73
2019-04-26T08:08:15.219Z,4.90
2019-04-26T08:11:06.198Z,4.57
2019-04-26T08:13:57.791Z,4.93
2019-04-26T08:16:43.711Z,5.23
2019-04-26T08:19:25.286Z,4.63
2019-04-26T08:22:11.474Z,4.47
2019-04-26T08:24:35.154Z,4.63
2019-04-26T08:27:23.679Z,3.77
2019-04-26T08:29:56.441Z,4.60
2019-04-26T08:32:33.248Z,4.53
2019-04-26T08:35:15.966Z,3.97
2019-04-26T08:37:55.123Z,4.00
2019-04-26T08:40:30.897Z,4.30
2019-04-26T08:43:22.584Z,4.00
2019-04-26T08:46:06.038Z,4.03
2019-04-26T08:48:46.357Z,3.70
2019-04-26T08:51:22.280Z,3.30
2019-04-26T08:53:56.751Z,3.57
2019-04-26T08:56:38.299Z,2.90
2019-04-26T08:59:26.765Z,3.63
2019-04-26T09:02:17.334Z,3.20
2019-04-26T09:05:08.509Z,3.30
2019-04-26T09:07:44.066Z,3.10
2019-04-26T09:10:18.938Z,3.03
2019-04-26T09:12:53.495Z,2.90
2019-04-26T09:15:44.369Z,2.80
2019-04-26T09:18:16.016Z,2.80
2019-04-26T09:20:46.717Z,3.00
2019-04-26T09:23:19.305Z,2.90
2019-04-26T09:25:58.995Z,2.90
2019-04-26T09:28:32.152Z,3.07
2019-04-26T09:31:07.378Z,2.90
2019-04-26T09:33:42.425Z,3.00
2019-04-26T09:36:13.335Z,3.10
2019-04-26T09:38:45.872Z,3.20
2019-04-26T09:41:16.848Z,3.20
2019-04-26T09:43:49.463Z,3.00
2019-04-26T09:46:21.793Z,2.90
2019-04-26T09:48:55.515Z,3.10
2019-04-26T09:51:26.711Z,3.20
2019-04-26T09:53:57.715Z,3.03
2019-04-26T09:56:28.669Z,2.80
2019-04-26T09:59:01.495Z,2.97
2019-04-26T10:01:32.930Z,3.20
2019-04-26T10:04:04.057Z,2.83
2019-04-26T10:06:35.056Z,3.83
2019-04-26T10:09:17.421Z,3.80
2019-04-26T10:11:53.141Z,2.97
2019-04-26T10:14:28.847Z,2.90
2019-04-26T10:17:01.140Z,2.87
2019-04-26T10:19:33.432Z,3.00
2019-04-26T10:22:04.272Z,2.87
2019-04-26T10:24:35.109Z,3.00
2019-04-26T10:27:05.938Z,3.30
2019-04-26T10:29:37.088Z,3.03
2019-04-26T10:32:08.031Z,2.90
2019-04-26T10:34:42.809Z,3.00
2019-04-26T10:37:11.628Z,3.50
2019-04-26T10:39:42.600Z,3.57
2019-04-26T10:42:13.507Z,2.90
2019-04-26T10:44:44.486Z,3.13
2019-04-26T10:47:15.790Z,2.87
2019-04-26T10:49:49.829Z,3.17
2019-04-26T10:52:22.113Z,3.00
2019-04-26T10:55:16.122Z,3.00
2019-04-26T10:57:46.890Z,3.00
2019-04-26T11:00:23.365Z,3.17
2019-04-26T11:02:54.081Z,2.90
2019-04-26T11:05:26.767Z,3.13
2019-04-26T11:07:57.452Z,3.40
2019-04-26T11:10:29.180Z,3.27
2019-04-26T11:13:00.106Z,3.03
2019-04-26T11:15:32.669Z,2.90
2019-04-26T11:18:03.828Z,3.13
2019-04-26T11:20:34.734Z,2.70
2019-04-26T11:23:08.172Z,3.23
2019-04-26T11:25:38.281Z,3.20
2019-04-26T11:28:09.332Z,3.17
2019-04-26T11:30:40.215Z,2.80
2019-04-26T11:33:12.666Z,2.80
2019-04-26T11:35:43.306Z,2.73
2019-04-26T11:38:14.239Z,2.80
2019-04-26T11:40:49.791Z,2.90
2019-04-26T11:43:19.540Z,3.00
2019-04-26T11:45:50.511Z,2.53
2019-04-26T11:48:21.686Z,3.20
2019-04-26T11:50:53.642Z,3.00
2019-04-26T11:53:24.427Z,2.87
2019-04-26T11:55:55.177Z,2.77
2019-04-26T11:58:25.836Z,2.70
2019-04-26T12:00:58.135Z,3.03
2019-04-26T12:03:28.811Z,3.17
2019-04-26T12:06:01.128Z,2.73
2019-04-26T12:08:48.318Z,2.70
2019-04-26T12:11:25.798Z,2.70
2019-04-26T12:13:51.351Z,2.70
2019-04-26T12:16:22.306Z,3.23
2019-04-26T12:18:52.975Z,3.30
2019-04-26T12:21:23.656Z,2.97
2019-04-26T12:23:55.523Z,2.90
2019-04-26T12:26:27.028Z,2.87
2019-04-26T12:28:57.932Z,2.90
2019-04-26T12:31:28.638Z,2.80
2019-04-26T12:33:59.608Z,2.93
2019-04-26T12:36:30.566Z,3.50
2019-04-26T12:39:02.249Z,3.37
2019-04-26T12:41:40.251Z,3.57
2019-04-26T12:44:08.150Z,3.77
2019-04-26T12:46:59.414Z,3.90
2019-04-26T12:49:29.103Z,3.80
2019-04-26T12:51:59.766Z,3.47
2019-04-26T12:54:31.554Z,3.47
2019-04-26T12:57:05.955Z,3.70
2019-04-26T12:59:44.079Z,4.00
2019-04-26T13:02:07.080Z,3.40
2019-04-26T13:04:40.607Z,3.50
2019-04-26T13:07:22.763Z,3.43
2019-04-26T13:10:02.245Z,3.03
2019-04-26T13:12:40.497Z,3.30
2019-04-26T13:15:46.365Z,3.10
2019-04-26T13:18:18.572Z,4.47
2019-04-26T13:20:49.273Z,3.60
2019-04-26T13:23:20.240Z,3.67
2019-04-26T13:25:50.881Z,3.57
2019-04-26T13:28:21.902Z,3.60
2019-04-26T13:30:52.549Z,4.23
2019-04-26T13:33:27.371Z,3.90
2019-04-26T13:36:03.850Z,4.23
2019-04-26T13:38:29.138Z,3.93
2019-04-26T13:41:04.601Z,4.57
2019-04-26T13:43:33.300Z,4.13
2019-04-26T13:46:20.749Z,3.90
2019-04-26T13:48:53.049Z,3.73
2019-04-26T13:51:34.615Z,4.47
2019-04-26T13:54:06.396Z,3.73
2019-04-26T13:56:37.632Z,4.20
2019-04-26T13:59:09.065Z,4.60
2019-04-26T14:01:39.804Z,3.93
2019-04-26T14:04:11.391Z,4.33
2019-04-26T14:06:42.075Z,4.40
2019-04-26T14:09:14.410Z,3.77
2019-04-26T14:11:45.322Z,4.10
2019-04-26T14:14:16.290Z,3.97
2019-04-26T14:16:47.183Z,4.30
2019-04-26T14:19:17.886Z,4.40
2019-04-26T14:21:48.727Z,3.53
2019-04-26T14:24:23.878Z,3.73
2019-04-26T14:27:00.790Z,3.70
2019-04-26T14:29:33.887Z,3.87
2019-04-26T14:32:04.766Z,3.47
2019-04-26T14:34:36.287Z,3.03
2019-04-26T14:37:11.033Z,3.87
2019-04-26T14:39:50.091Z,3.73
2019-04-26T14:42:12.814Z,2.97
2019-04-26T14:44:49.605Z,3.30
2019-04-26T14:47:17.977Z,3.37
2019-04-26T14:49:48.498Z,2.63
2019-04-26T14:52:19.705Z,3.07
2019-04-26T14:54:50.787Z,3.70
2019-04-26T14:57:26.749Z,3.23
2019-04-26T14:59:58.147Z,3.13
2019-04-26T15:02:28.658Z,3.17
2019-04-26T15:05:12.811Z,3.50
2019-04-26T15:07:51.120Z,3.30
2019-04-26T15:10:16.937Z,2.73
2019-04-26T15:12:52.647Z,3.60
2019-04-26T15:15:20.481Z,3.07
2019-04-26T15:17:53.635Z,3.17
2019-04-26T15:20:24.544Z,3.13
2019-04-26T15:22:55.200Z,3.63
2019-04-26T15:25:26.123Z,3.77
2019-04-26T15:27:57.091Z,3.83
2019-04-26T15:30:27.729Z,3.30
2019-04-26T15:32:58.680Z,3.70
2019-04-26T15:35:34.198Z,3.57
2019-04-26T15:38:02.490Z,3.77
2019-04-26T15:40:42.493Z,3.87
2019-04-26T15:43:20.627Z,3.27
2019-04-26T15:45:53.044Z,3.60
2019-04-26T15:48:26.176Z,5.10
2019-04-26T15:50:57.647Z,4.70
2019-04-26T15:53:28.544Z,4.70
2019-04-26T15:55:59.227Z,4.10
2019-04-26T15:58:29.881Z,4.10
2019-04-26T16:01:00.698Z,3.80
2019-04-26T16:03:32.783Z,4.33
2019-04-26T16:06:07.004Z,4.83
2019-04-26T16:08:42.514Z,5.27
2019-04-26T16:11:11.364Z,4.77
2019-04-26T16:13:45.163Z,5.13
2019-04-26T16:16:16.465Z,5.00
2019-04-26T16:18:55.554Z,4.83
2019-04-26T16:21:23.717Z,4.80
2019-04-26T16:23:55.439Z,4.50
2019-04-26T16:26:27.254Z,5.00
2019-04-26T16:29:03.501Z,5.30
2019-04-26T16:31:42.057Z,4.40
2019-04-26T16:34:15.820Z,4.90
2019-04-26T16:36:46.755Z,5.10
2019-04-26T16:39:17.911Z,5.07
2019-04-26T16:41:49.264Z,5.43
2019-04-26T16:44:29.598Z,5.63
2019-04-26T16:47:01.334Z,5.33
2019-04-26T16:49:35.125Z,5.37
2019-04-26T16:52:07.106Z,5.90
2019-04-26T16:54:38.033Z,6.80
2019-04-26T16:57:11.377Z,7.83
2019-04-26T16:59:47.677Z,7.50
2019-04-26T17:02:16.219Z,7.73
2019-04-26T17:04:49.944Z,7.90
2019-04-26T17:07:25.376Z,8.63
2019-04-26T17:09:58.959Z,9.13
2019-04-26T17:12:26.024Z,9.27
2019-04-26T17:14:57.038Z,10.73
2019-04-26T17:17:27.771Z,11.30
2019-04-26T17:19:59.029Z,12.43
2019-04-26T17:22:42.546Z,13.43
2019-04-26T17:25:24.444Z,13.63
2019-04-26T17:27:54.657Z,12.67
2019-04-26T17:30:34.477Z,13.90
2019-04-26T17:33:04.099Z,13.90
2019-04-26T17:35:40.720Z,14.33
2019-04-26T17:38:11.466Z,15.63
2019-04-26T17:40:41.588Z,16.83
2019-04-26T17:43:13.462Z,15.93
2019-04-26T17:45:44.761Z,15.43
2019-04-26T17:48:16.490Z,15.40
2019-04-26T17:50:47.633Z,16.27
2019-04-26T17:53:28.188Z,17.23
2019-04-26T17:55:54.628Z,17.70
2019-04-26T17:58:31.054Z,18.07
2019-04-26T18:01:01.053Z,17.93
2019-04-26T18:03:29.812Z,19.33
2019-04-26T18:06:02.273Z,19.97
2019-04-26T18:08:41.087Z,21.23
2019-04-26T18:11:18.386Z,21.80
2019-04-26T18:13:47.182Z,22.07
2019-04-26T18:16:17.755Z,23.10
2019-04-26T18:19:02.471Z,23.87
2019-04-26T18:21:59.628Z,25.07
2019-04-26T18:24:27.578Z,25.40
2019-04-26T18:27:00.621Z,26.93
2019-04-26T18:29:33.699Z,26.93
2019-04-26T18:32:04.937Z,27.10
2019-04-26T18:34:40.237Z,27.93
2019-04-26T18:37:09.231Z,29.07
2019-04-26T18:39:40.709Z,31.20
2019-04-26T18:42:13.842Z,34.13
2019-04-26T18:44:48.766Z,34.07
2019-04-26T18:47:27.459Z,33.90
2019-04-26T18:49:58.325Z,36.07
2019-04-26T18:52:28.695Z,35.27
2019-04-26T18:55:05.507Z,35.20
2019-04-26T18:57:39.501Z,35.77
2019-04-26T19:00:14.357Z,36.27
2019-04-26T19:02:48.383Z,36.47
2019-04-26T19:05:23.828Z,36.37
2019-04-26T19:07:52.277Z,37.10
2019-04-26T19:10:25.830Z,36.53
2019-04-26T19:13:07.330Z,34.03
2019-04-26T19:15:53.351Z,35.53
2019-04-26T19:18:42.437Z,33.20
2019-04-26T19:21:14.829Z,32.00
2019-04-26T19:23:45.608Z,31.13
2019-04-26T19:26:32.427Z,33.43
2019-04-26T19:28:54.389Z,32.93
2019-04-26T19:31:27.106Z,30.90
2019-04-26T19:33:57.772Z,29.50
2019-04-26T19:36:29.368Z,24.20
2019-04-26T19:39:01.014Z,21.57
2019-04-26T19:41:33.535Z,21.23
2019-04-26T19:44:06.610Z,21.87
2019-04-26T19:46:45.385Z,22.53
2019-04-26T19:49:33.242Z,23.37
2019-04-26T19:52:22.047Z,17.47
2019-04-26T19:55:11.522Z,11.17
2019-04-26T19:58:01.813Z,9.10
2019-04-26T20:00:32.557Z,8.37
2019-04-26T20:03:03.406Z,7.77
2019-04-26T20:05:36.305Z,6.67
2019-04-26T20:08:07.822Z,6.53
2019-04-26T20:10:44.712Z,7.37
2019-04-26T20:13:16.501Z,8.00
2019-04-26T20:15:49.357Z,8.53
2019-04-26T20:18:21.397Z,8.13
2019-04-26T20:20:54.571Z,9.10
2019-04-26T20:23:25.944Z,9.37
2019-04-26T20:26:06.106Z,9.87
2019-04-26T20:28:34.313Z,8.57
2019-04-26T20:31:07.690Z,9.77
2019-04-26T20:33:39.107Z,8.90
2019-04-26T20:36:12.717Z,9.07
2019-04-26T20:38:47.418Z,9.80
2019-04-26T20:41:17.740Z,9.10
2019-04-26T20:44:04.426Z,7.33
2019-04-26T20:46:29.696Z,7.97
2019-04-26T20:49:07.923Z,8.77
2019-04-26T20:51:35.030Z,10.10
2019-04-26T20:54:06.112Z,9.43
2019-04-26T20:56:37.127Z,9.27
2019-04-26T20:59:08.170Z,10.20
2019-04-26T21:01:43.627Z,9.67
2019-04-26T21:04:34.988Z,10.13
2019-04-26T21:06:54.891Z,11.07
2019-04-26T21:09:26.538Z,10.20
2019-04-26T21:11:57.631Z,10.20
2019-04-26T21:14:28.423Z,10.23
2019-04-26T21:16:59.848Z,10.33
2019-04-26T21:19:32.744Z,9.57
2019-04-26T21:22:03.559Z,9.83
2019-04-26T21:24:36.928Z,9.70
2019-04-26T21:27:26.057Z,9.37
2019-04-26T21:30:07.398Z,10.63
2019-04-26T21:32:40.769Z,9.23
2019-04-26T21:35:13.636Z,9.57
2019-04-26T21:37:49.455Z,9.10
2019-04-26T21:40:26.016Z,9.60
2019-04-26T21:42:59.249Z,9.20
2019-04-26T21:45:30.886Z,9.63
2019-04-26T21:48:02.606Z,9.83
2019-04-26T21:50:38.667Z,8.93
2019-04-26T21:53:07.159Z,8.73
2019-04-26T21:55:38.951Z,8.83
2019-04-26T21:58:09.650Z,9.10
2019-04-26T22:00:48.933Z,9.23
2019-04-26T22:03:21.412Z,9.40
2019-04-26T22:05:52.110Z,10.03
2019-04-26T22:08:25.701Z,10.60
2019-04-26T22:10:58.330Z,10.20
2019-04-26T22:13:41.576Z,10.33
2019-04-26T22:16:29.309Z,11.63
2019-04-26T22:19:04.832Z,11.43
2019-04-26T22:21:44.345Z,11.63
2019-04-26T22:24:35.137Z,13.20
2019-04-26T22:27:06.103Z,12.53
2019-04-26T22:29:37.033Z,12.50
2019-04-26T22:32:11.548Z,12.97
2019-04-26T22:34:41.395Z,12.47
2019-04-26T22:37:14.812Z,15.10
2019-04-26T22:39:45.436Z,13.95
2019-04-26T22:42:18.337Z,14.87
2019-04-26T22:44:53.908Z,13.20
2019-04-26T22:47:40.832Z,13.00
2019-04-26T22:50:13.989Z,13.50
2019-04-26T22:52:46.691Z,12.00
2019-04-26T22:55:24.024Z,12.20
2019-04-26T22:57:53.039Z,12.17
2019-04-26T23:18:13.751Z,11.77
2019-04-26T23:20:59.055Z,11.67
2019-04-26T23:23:30.261Z,10.27
2019-04-26T23:26:06.176Z,11.70
2019-04-26T23:28:39.225Z,10.47
2019-04-26T23:31:10.432Z,11.20
2019-04-26T23:33:42.831Z,9.60
2019-04-26T23:36:18.451Z,8.77
2019-04-26T23:38:47.579Z,9.47
2019-04-26T23:41:18.263Z,9.17
2019-04-26T23:43:49.312Z,8.73
2019-04-26T23:46:22.852Z,8.37
2019-04-26T23:48:53.867Z,7.87
2019-04-26T23:51:26.183Z,7.63
2019-04-26T23:53:57.956Z,8.30
2019-04-26T23:56:30.961Z,7.70
2019-04-26T23:59:03.486Z,8.30
